Time;durP1;ratioP1;P1;durP2;ratioP2;P2;SDS_P1;SDS_P2;PMS_P1;PMS_P2;Temp;Humidity;BMP_temperature;BMP_pressure;BME280_temperature;BME280_humidity;BME280_pressure;Samples;Min_cycle;Max_cycle;Signal;HPM_P1;HPM_P2
2023/10/20 00:00:55;;;;;;;35.08;11.98;;;21.60;99.90;;;;;;4942150;29;20083;-91
2023/10/20 00:03:22;;;;;;;26.13;12.13;;;21.60;99.90;;;;;;4941702;28;20595;-91
2023/10/20 00:05:49;;;;;;;25.70;12.10;;;21.60;99.90;;;;;;4941825;29;20042;-91
2023/10/20 00:08:18;;;;;;;36.92;12.13;;;21.60;99.90;;;;;;4938468;29;20098;-93
2023/10/20 00:10:45;;;;;;;26.85;12.80;;;21.60;99.90;;;;;;4938208;29;20407;-86
2023/10/20 00:13:11;;;;;;;30.52;12.25;;;21.60;99.90;;;;;;4937247;29;20221;-88
2023/10/20 00:15:38;;;;;;;25.58;11.63;;;21.50;99.90;;;;;;4937253;29;20433;-89
2023/10/20 00:18:08;;;;;;;27.85;12.70;;;21.50;99.90;;;;;;4937447;29;20396;-91
2023/10/20 00:20:35;;;;;;;24.80;12.00;;;21.50;99.90;;;;;;4937384;29;20079;-90
2023/10/20 00:23:02;;;;;;;32.65;13.07;;;21.60;99.90;;;;;;4937672;29;20036;-90
2023/10/20 00:25:28;;;;;;;29.08;12.18;;;21.60;99.90;;;;;;4938719;29;20040;-90
2023/10/20 00:27:58;;;;;;;38.95;13.05;;;21.60;99.90;;;;;;4938474;29;20043;-91
2023/10/20 00:30:28;;;;;;;43.10;14.18;;;21.60;99.90;;;;;;4938579;29;20042;-92
2023/10/20 00:32:54;;;;;;;28.95;12.13;;;21.60;99.90;;;;;;4938558;29;20095;-91
2023/10/20 00:35:25;;;;;;;29.33;11.75;;;21.60;99.90;;;;;;4938150;29;20054;-90
2023/10/20 00:37:51;;;;;;;27.77;11.90;;;21.60;99.90;;;;;;4926038;29;20031;-90
2023/10/20 00:40:19;;;;;;;32.00;13.00;;;21.60;99.90;;;;;;4937478;29;20043;-92
2023/10/20 00:42:46;;;;;;;28.80;13.00;;;21.60;99.90;;;;;;4938099;29;20032;-90
2023/10/20 00:45:13;;;;;;;35.95;12.88;;;21.60;99.90;;;;;;4937725;29;20028;-91
2023/10/20 00:47:40;;;;;;;36.90;12.98;;;21.60;99.90;;;;;;4935655;29;20905;-89
2023/10/20 00:50:29;;;;;;;29.35;12.52;;;21.60;99.90;;;;;;4922385;29;20031;-89
2023/10/20 00:52:54;;;;;;;39.15;14.00;;;21.60;99.90;;;;;;4952552;29;20559;-91
2023/10/20 00:55:22;;;;;;;32.15;14.35;;;21.60;99.90;;;;;;4921486;29;20032;-91
2023/10/20 00:57:50;;;;;;;35.13;12.48;;;21.60;99.90;;;;;;4921633;29;20511;-91
2023/10/20 01:00:17;;;;;;;37.15;13.52;;;21.60;99.90;;;;;;4922459;29;20023;-90
2023/10/20 01:02:43;;;;;;;34.67;13.95;;;21.60;99.90;;;;;;4937258;29;20127;-92
2023/10/20 01:05:10;;;;;;;36.55;12.88;;;21.60;99.90;;;;;;4921404;29;20031;-90
2023/10/20 01:07:37;;;;;;;28.52;12.85;;;21.60;99.90;;;;;;4937608;29;20027;-91
2023/10/20 01:10:09;;;;;;;32.38;12.48;;;21.60;99.90;;;;;;4925481;29;20460;-90
2023/10/20 01:12:36;;;;;;;25.67;12.52;;;21.70;99.90;;;;;;4936685;29;20032;-89
2023/10/20 01:15:06;;;;;;;30.33;12.93;;;21.60;99.90;;;;;;4921129;29;20048;-91
2023/10/20 01:17:33;;;;;;;33.90;12.85;;;21.70;99.90;;;;;;4937118;29;20098;-90
2023/10/20 01:20:04;;;;;;;27.85;13.15;;;21.60;99.90;;;;;;4936695;29;20055;-92
2023/10/20 01:22:30;;;;;;;39.95;14.07;;;21.60;99.90;;;;;;4937389;29;20032;-90
2023/10/20 01:24:58;;;;;;;37.08;13.85;;;21.70;99.90;;;;;;4921433;29;20024;-89
2023/10/20 01:27:24;;;;;;;37.90;14.23;;;21.70;99.90;;;;;;4921107;29;20523;-90
2023/10/20 01:29:51;;;;;;;40.47;14.98;;;21.60;99.90;;;;;;4920569;29;20023;-90
2023/10/20 01:32:19;;;;;;;35.30;14.50;;;21.60;99.90;;;;;;4937139;29;20036;-89
2023/10/20 01:34:49;;;;;;;40.92;15.65;;;21.60;99.90;;;;;;4936605;29;20024;-89
2023/10/20 01:37:16;;;;;;;46.08;14.60;;;21.60;99.90;;;;;;4920675;29;20048;-91
2023/10/20 01:39:42;;;;;;;42.83;14.90;;;21.60;99.90;;;;;;4936348;29;20027;-89
2023/10/20 01:42:09;;;;;;;30.40;13.07;;;21.60;99.90;;;;;;4920753;29;20039;-91
2023/10/20 01:44:36;;;;;;;39.85;14.00;;;21.60;99.90;;;;;;4936650;29;20476;-92
2023/10/20 01:47:03;;;;;;;50.58;14.65;;;21.60;99.90;;;;;;4920879;29;20040;-90
2023/10/20 01:49:29;;;;;;;33.00;13.43;;;21.60;99.90;;;;;;4920864;29;20126;-90
2023/10/20 01:51:56;;;;;;;40.58;14.60;;;21.70;99.90;;;;;;4922939;29;20024;-90
2023/10/20 01:54:25;;;;;;;34.03;14.93;;;21.70;99.90;;;;;;4940792;29;20027;-89
2023/10/20 01:56:51;;;;;;;35.13;13.98;;;21.60;99.90;;;;;;4924208;29;20046;-92
2023/10/20 01:59:18;;;;;;;41.10;13.50;;;21.60;99.90;;;;;;4940466;29;20050;-91
2023/10/20 02:01:45;;;;;;;35.17;14.25;;;21.70;99.90;;;;;;4924867;29;20396;-91
2023/10/20 02:04:11;;;;;;;32.38;13.20;;;21.70;99.90;;;;;;4940973;29;20024;-91
2023/10/20 02:06:38;;;;;;;33.28;12.57;;;21.70;99.90;;;;;;4940906;29;20460;-90
2023/10/20 02:09:06;;;;;;;29.20;12.75;;;21.60;99.90;;;;;;4924284;29;20480;-90
2023/10/20 02:11:36;;;;;;;34.42;14.18;;;21.70;99.90;;;;;;4940745;29;20041;-90
2023/10/20 02:14:03;;;;;;;32.05;13.18;;;21.60;99.90;;;;;;4940617;29;20036;-93
2023/10/20 02:16:31;;;;;;;35.50;13.70;;;21.70;99.90;;;;;;4923931;29;20517;-93
2023/10/20 02:18:59;;;;;;;40.05;13.30;;;21.70;99.90;;;;;;4940314;29;20067;-90
2023/10/20 02:21:25;;;;;;;30.85;13.93;;;21.70;99.90;;;;;;4924411;29;20118;-89
2023/10/20 02:23:52;;;;;;;47.03;14.10;;;21.70;99.90;;;;;;4933272;29;20038;-92
2023/10/20 02:26:19;;;;;;;38.03;13.40;;;21.70;99.90;;;;;;4925436;29;20028;-91
2023/10/20 02:28:45;;;;;;;32.47;13.63;;;21.70;99.90;;;;;;4940126;29;20035;-91
2023/10/20 02:31:18;;;;;;;37.67;14.10;;;21.70;99.90;;;;;;4924561;29;20118;-92
2023/10/20 02:33:48;;;;;;;43.00;13.88;;;21.80;99.90;;;;;;4940367;29;20043;-90
2023/10/20 02:36:19;;;;;;;33.15;13.10;;;21.80;99.90;;;;;;4924556;29;20042;-90
2023/10/20 02:38:48;;;;;;;30.98;13.05;;;21.80;99.90;;;;;;4940420;29;20024;-91
2023/10/20 02:41:15;;;;;;;40.10;13.25;;;21.80;99.90;;;;;;4924592;29;20511;-91
2023/10/20 02:43:42;;;;;;;27.75;12.40;;;21.80;99.90;;;;;;4924993;29;20039;-91
2023/10/20 02:46:12;;;;;;;35.08;12.95;;;21.80;99.90;;;;;;4925672;29;20380;-90
2023/10/20 02:48:42;;;;;;;26.88;11.27;;;21.80;99.90;;;;;;4927875;29;20052;-91
2023/10/20 02:51:09;;;;;;;47.65;13.52;;;21.80;99.90;;;;;;4906386;29;20036;-94
2023/10/20 02:53:39;;;;;;;37.85;12.85;;;21.80;99.90;;;;;;4906261;29;20064;-90
2023/10/20 02:56:13;;;;;;;34.15;12.75;;;21.80;99.90;;;;;;4921729;29;20070;-91
2023/10/20 02:58:40;;;;;;;29.10;12.45;;;21.70;99.90;;;;;;4922331;29;20028;-92
2023/10/20 03:01:07;;;;;;;43.55;12.45;;;21.80;99.90;;;;;;4907308;29;20123;-91
2023/10/20 03:03:34;;;;;;;38.22;12.43;;;21.80;99.90;;;;;;4907352;29;20028;-91
2023/10/20 03:06:02;;;;;;;41.25;13.02;;;21.80;99.90;;;;;;4904358;29;20024;-89
2023/10/20 03:08:29;;;;;;;37.08;11.98;;;21.80;99.90;;;;;;4904404;29;20028;-90
2023/10/20 03:10:57;;;;;;;28.48;11.95;;;21.80;99.90;;;;;;4904347;29;20028;-91
2023/10/20 03:13:27;;;;;;;41.65;12.75;;;21.80;99.90;;;;;;4919383;29;20040;-92
2023/10/20 03:16:00;;;;;;;24.05;11.85;;;21.80;99.90;;;;;;4907615;29;20028;-92
2023/10/20 03:18:33;;;;;;;38.05;12.00;;;21.80;99.90;;;;;;4924600;29;20040;-92
2023/10/20 03:21:04;;;;;;;33.20;12.63;;;21.70;99.90;;;;;;4923611;29;20039;-93
2023/10/20 03:23:48;;;;;;;35.53;12.55;;;21.70;99.90;;;;;;4904005;29;20114;-92
2023/10/20 03:26:15;;;;;;;41.42;12.43;;;21.70;99.90;;;;;;4910305;29;20087;-93
2023/10/20 03:28:41;;;;;;;37.40;12.13;;;21.70;99.90;;;;;;4892312;29;20193;-92
2023/10/20 03:31:11;;;;;;;32.30;11.98;;;21.70;99.90;;;;;;4904286;29;20029;-92
2023/10/20 03:33:38;;;;;;;37.35;12.73;;;21.70;99.90;;;;;;4888628;29;20032;-92
2023/10/20 03:36:05;;;;;;;29.63;11.68;;;21.70;99.90;;;;;;4934143;23;20451;-93
2023/10/20 03:38:38;;;;;;;41.15;12.45;;;21.70;99.90;;;;;;4909223;29;20111;-92
2023/10/20 03:47:05;;;;;;;34.80;12.35;;;21.70;99.90;;;;;;5021663;23;20054;-92
2023/10/20 03:49:36;;;;;;;34.97;13.40;;;21.70;99.90;;;;;;4945724;28;20157;-92
2023/10/20 03:52:06;;;;;;;44.38;13.93;;;21.80;99.90;;;;;;4929301;29;20031;-91
2023/10/20 03:54:34;;;;;;;35.55;12.65;;;21.80;99.90;;;;;;4952675;29;20055;-92
2023/10/20 03:57:04;;;;;;;32.83;13.82;;;21.80;99.90;;;;;;4951117;29;20039;-92
2023/10/20 03:59:32;;;;;;;31.65;12.55;;;21.70;99.90;;;;;;4942272;29;20027;-92
2023/10/20 04:01:58;;;;;;;29.77;11.02;;;21.70;99.90;;;;;;4940711;29;20074;-92
2023/10/20 04:04:25;;;;;;;32.25;11.98;;;21.70;99.90;;;;;;4942923;29;20023;-92
2023/10/20 04:06:54;;;;;;;31.38;12.20;;;21.70;99.90;;;;;;4941125;29;20054;-93
2023/10/20 04:09:24;;;;;;;32.13;11.82;;;21.70;99.90;;;;;;4940690;29;20035;-93
2023/10/20 04:11:54;;;;;;;33.97;11.63;;;21.70;99.90;;;;;;4940971;29;20027;-93
2023/10/20 04:14:20;;;;;;;35.78;12.10;;;21.70;99.90;;;;;;4940588;29;20023;-93
2023/10/20 04:16:48;;;;;;;30.90;12.93;;;21.80;99.90;;;;;;4941880;29;20043;-91
2023/10/20 04:19:15;;;;;;;30.63;11.95;;;21.80;99.90;;;;;;4940679;29;20396;-91
2023/10/20 04:21:43;;;;;;;44.13;13.40;;;21.80;99.90;;;;;;4940553;29;20027;-88
2023/10/20 04:24:11;;;;;;;34.63;12.38;;;21.80;99.90;;;;;;4940511;29;20093;-88
2023/10/20 04:26:44;;;;;;;34.38;13.15;;;21.70;99.90;;;;;;4942702;29;20027;-88
2023/10/20 04:44:29;;;;;;;39.47;11.48;;;21.70;99.90;;;;;;4895299;29;20465;-88
2023/10/20 04:54:19;;;;;;;31.75;12.15;;;21.70;99.90;;;;;;4917736;29;20080;-89
2023/10/20 04:59:44;;;;;;;38.35;12.82;;;21.70;99.90;;;;;;4894113;29;20040;-87
2023/10/20 05:02:32;;;;;;;30.13;12.55;;;21.70;99.90;;;;;;4917501;29;20035;-87
2023/10/20 05:05:01;;;;;;;37.72;12.50;;;21.70;99.90;;;;;;4902090;29;20523;-88
2023/10/20 05:07:28;;;;;;;39.90;12.57;;;21.80;99.90;;;;;;4886172;29;20474;-87
2023/10/20 05:09:55;;;;;;;30.05;12.85;;;21.80;99.90;;;;;;4901153;29;20032;-87
2023/10/20 05:12:21;;;;;;;34.25;12.05;;;21.70;99.90;;;;;;4885650;29;20034;-88
2023/10/20 05:14:49;;;;;;;38.08;12.73;;;21.70;99.90;;;;;;4897991;29;20028;-87
2023/10/20 05:17:18;;;;;;;40.25;14.20;;;21.70;99.90;;;;;;4898708;29;20059;-89
2023/10/20 05:19:44;;;;;;;33.53;12.35;;;21.80;99.90;;;;;;4916600;29;20039;-88
2023/10/20 05:22:11;;;;;;;36.38;12.15;;;21.80;99.90;;;;;;4900928;29;20549;-87
2023/10/20 05:24:37;;;;;;;34.08;12.77;;;21.80;99.90;;;;;;4885859;29;20119;-88
2023/10/20 05:27:04;;;;;;;50.10;13.10;;;21.80;99.90;;;;;;4900375;29;20028;-88
2023/10/20 05:29:30;;;;;;;41.42;12.02;;;21.90;99.90;;;;;;4901317;29;20032;-89
2023/10/20 05:31:58;;;;;;;40.53;12.63;;;21.90;99.90;;;;;;4901114;29;20029;-91
2023/10/20 05:34:25;;;;;;;33.97;12.60;;;21.90;99.90;;;;;;4900710;29;20036;-89
2023/10/20 05:36:51;;;;;;;26.25;11.98;;;21.90;99.90;;;;;;4916671;29;20043;-88
2023/10/20 05:39:21;;;;;;;34.08;11.55;;;21.90;99.90;;;;;;4885567;29;20481;-89
2023/10/20 05:41:48;;;;;;;31.95;11.43;;;21.90;99.90;;;;;;4901012;29;20028;-88
2023/10/20 05:44:17;;;;;;;34.92;11.95;;;22.00;99.90;;;;;;4885370;29;20020;-88
2023/10/20 05:46:43;;;;;;;29.95;11.15;;;22.00;99.90;;;;;;4897108;29;20103;-91
2023/10/20 05:49:10;;;;;;;38.08;12.63;;;22.10;99.90;;;;;;4902580;29;20032;-90
2023/10/20 05:51:36;;;;;;;32.90;11.98;;;22.10;99.90;;;;;;4917142;29;20029;-91
2023/10/20 05:54:06;;;;;;;32.28;11.85;;;22.10;99.90;;;;;;4917399;29;20028;-92
2023/10/20 05:56:33;;;;;;;38.35;11.70;;;22.10;99.90;;;;;;4916358;29;20108;-93
2023/10/20 05:58:59;;;;;;;37.85;11.82;;;22.20;99.90;;;;;;4883897;29;20486;-91
2023/10/20 06:01:25;;;;;;;36.78;10.70;;;22.40;99.90;;;;;;4884754;29;20458;-91
2023/10/20 06:03:52;;;;;;;27.40;10.90;;;22.50;99.90;;;;;;4882580;29;20029;-90
2023/10/20 06:06:18;;;;;;;33.95;10.93;;;22.60;99.90;;;;;;4887156;29;20036;-92
2023/10/20 06:08:45;;;;;;;33.17;11.63;;;22.60;99.90;;;;;;4918487;29;20024;-90
2023/10/20 06:11:11;;;;;;;26.65;11.73;;;22.50;99.90;;;;;;4917916;29;20043;-90
2023/10/20 06:13:38;;;;;;;30.20;10.45;;;22.60;99.90;;;;;;4918257;29;20025;-90
2023/10/20 06:16:10;;;;;;;33.40;11.52;;;22.70;99.90;;;;;;4902670;29;20494;-91
2023/10/20 06:18:41;;;;;;;30.73;11.80;;;22.70;99.90;;;;;;4900903;29;20036;-90
2023/10/20 06:21:16;;;;;;;38.67;12.30;;;22.70;99.90;;;;;;4885335;29;20115;-90
2023/10/20 06:23:43;;;;;;;42.95;11.70;;;22.80;99.90;;;;;;4882054;29;20063;-90
2023/10/20 06:26:10;;;;;;;31.85;11.38;;;23.00;99.90;;;;;;4882354;29;20029;-88
2023/10/20 06:28:36;;;;;;;35.10;12.77;;;23.10;99.90;;;;;;4883253;29;20037;-89
2023/10/20 06:31:57;;;;;;;31.23;12.40;;;23.20;99.90;;;;;;4882241;29;20044;-92
2023/10/20 06:33:58;;;;;;;27.83;11.88;;;23.20;99.90;;;;;;4889777;29;20083;-91
2023/10/20 06:36:26;;;;;;;35.13;13.45;;;23.40;99.90;;;;;;4916152;29;20036;-91
2023/10/20 06:38:53;;;;;;;32.58;12.73;;;23.40;99.90;;;;;;4919478;29;20024;-89
2023/10/20 06:41:19;;;;;;;26.45;13.73;;;23.40;99.90;;;;;;4919476;29;20040;-90
2023/10/20 06:43:48;;;;;;;33.70;13.13;;;23.40;99.90;;;;;;4920032;29;20035;-90
2023/10/20 06:46:14;;;;;;;34.25;13.00;;;23.40;99.90;;;;;;4938207;29;20539;-90
2023/10/20 06:48:44;;;;;;;33.20;13.95;;;23.50;99.90;;;;;;4922850;29;20031;-89
2023/10/20 06:51:10;;;;;;;30.58;13.90;;;23.70;99.90;;;;;;4922841;29;20441;-91
2023/10/20 06:53:37;;;;;;;32.30;15.05;;;23.60;99.90;;;;;;4954536;29;20132;-92
2023/10/20 06:56:05;;;;;;;29.05;13.98;;;23.50;99.90;;;;;;4923034;29;20047;-91
2023/10/20 06:58:38;;;;;;;41.95;15.85;;;23.70;99.90;;;;;;4928351;29;20023;-94
2023/10/20 07:01:08;;;;;;;35.72;14.40;;;23.70;99.90;;;;;;4933102;29;20040;-93
2023/10/20 07:03:47;;;;;;;27.50;13.95;;;23.70;99.90;;;;;;4933047;29;20027;-92
2023/10/20 07:06:17;;;;;;;30.23;13.73;;;23.80;99.90;;;;;;4929552;29;20024;-92
2023/10/20 07:08:52;;;;;;;38.47;14.07;;;23.70;99.90;;;;;;4930706;29;20035;-93
2023/10/20 07:11:41;;;;;;;28.65;14.20;;;23.70;99.90;;;;;;4917880;29;20054;-92
2023/10/20 07:14:20;;;;;;;35.13;14.48;;;23.80;99.90;;;;;;4966326;29;20040;-93
2023/10/20 07:16:48;;;;;;;28.30;14.45;;;24.00;99.90;;;;;;4948873;29;20039;-92
2023/10/20 07:19:21;;;;;;;31.05;14.25;;;23.90;99.90;;;;;;4946611;29;20031;-94
2023/10/20 07:22:04;;;;;;;29.60;14.32;;;24.00;99.90;;;;;;4922140;29;20039;-92
2023/10/20 07:30:40;;;;;;;27.45;14.10;;;24.00;99.90;;;;;;4977045;23;20051;-94
2023/10/20 07:33:31;;;;;;;32.05;14.32;;;24.10;99.90;;;;;;4948668;29;20075;-92
2023/10/20 07:35:58;;;;;;;30.60;14.15;;;24.00;99.90;;;;;;4963776;29;20137;-92
2023/10/20 07:38:24;;;;;;;28.63;13.00;;;23.90;99.90;;;;;;4942253;29;20106;-90
2023/10/20 07:40:50;;;;;;;29.85;12.65;;;23.90;99.90;;;;;;4941689;29;20039;-92
2023/10/20 07:43:19;;;;;;;35.88;14.73;;;23.80;99.90;;;;;;4941118;29;20093;-91
2023/10/20 07:45:46;;;;;;;29.27;13.48;;;23.90;99.90;;;;;;4941259;29;20046;-88
2023/10/20 07:48:13;;;;;;;44.58;15.18;;;24.10;99.90;;;;;;4940512;28;20078;-90
2023/10/20 07:50:40;;;;;;;32.92;14.00;;;24.10;99.90;;;;;;4940537;29;20054;-90
2023/10/20 07:53:07;;;;;;;37.55;14.70;;;24.00;99.90;;;;;;4940818;29;20062;-88
2023/10/20 07:55:33;;;;;;;25.92;13.25;;;24.10;99.90;;;;;;4941108;29;20043;-90
2023/10/20 07:58:00;;;;;;;31.70;13.20;;;24.20;99.90;;;;;;4940878;29;20417;-89
2023/10/20 08:00:26;;;;;;;30.98;13.90;;;24.20;99.90;;;;;;4940214;29;20155;-91
2023/10/20 08:02:53;;;;;;;29.63;13.50;;;24.10;99.90;;;;;;4922278;29;20027;-92
2023/10/20 08:05:24;;;;;;;36.03;14.63;;;24.00;99.90;;;;;;4921970;29;20028;-91
2023/10/20 08:07:51;;;;;;;40.80;13.52;;;24.10;99.90;;;;;;4921920;29;20034;-91
2023/10/20 08:10:17;;;;;;;33.17;14.38;;;24.20;99.90;;;;;;4921270;29;20176;-90
2023/10/20 08:12:43;;;;;;;31.48;14.32;;;24.10;99.90;;;;;;4921356;29;20493;-92
2023/10/20 08:15:10;;;;;;;30.38;14.27;;;24.00;99.90;;;;;;4921183;29;20036;-90
2023/10/20 08:17:37;;;;;;;36.30;13.57;;;24.00;99.90;;;;;;4921194;29;20039;-89
2023/10/20 08:20:09;;;;;;;31.83;13.45;;;24.00;99.90;;;;;;4921195;29;20090;-90
2023/10/20 08:22:36;;;;;;;38.78;13.20;;;24.10;99.90;;;;;;4921221;29;20031;-89
2023/10/20 08:25:09;;;;;;;39.10;12.80;;;24.00;99.90;;;;;;4921150;29;20122;-89
2023/10/20 08:27:37;;;;;;;44.42;13.63;;;24.00;99.90;;;;;;4921165;29;20042;-90
2023/10/20 08:30:04;;;;;;;36.60;12.52;;;23.90;99.90;;;;;;4920676;29;20138;-90
2023/10/20 08:32:31;;;;;;;28.70;12.77;;;24.00;99.90;;;;;;4921011;29;20035;-91
2023/10/20 08:34:58;;;;;;;32.00;12.80;;;24.20;99.90;;;;;;4921138;29;20035;-88
2023/10/20 08:37:25;;;;;;;32.45;13.20;;;24.20;99.90;;;;;;4920879;29;20051;-90
2023/10/20 08:39:54;;;;;;;36.53;13.38;;;24.30;99.90;;;;;;4921591;29;20039;-92
2023/10/20 08:42:21;;;;;;;29.23;13.20;;;24.40;99.90;;;;;;4920930;29;20031;-92
2023/10/20 08:44:49;;;;;;;31.77;13.68;;;24.50;99.90;;;;;;4920732;29;20035;-91
2023/10/20 08:47:19;;;;;;;33.95;14.90;;;24.50;99.90;;;;;;4921043;29;20055;-90
2023/10/20 08:49:47;;;;;;;40.08;15.13;;;24.70;99.90;;;;;;4920871;29;20058;-90
2023/10/20 08:52:14;;;;;;;32.17;15.85;;;24.90;99.90;;;;;;4920727;29;20486;-91
2023/10/20 08:54:41;;;;;;;30.40;14.82;;;25.00;99.90;;;;;;4921043;29;20179;-89
2023/10/20 08:57:08;;;;;;;36.38;14.57;;;24.80;99.90;;;;;;4920885;29;20171;-89
2023/10/20 08:59:37;;;;;;;32.75;14.18;;;24.60;99.90;;;;;;4920234;29;20111;-88
2023/10/20 09:02:04;;;;;;;31.05;13.80;;;24.40;99.90;;;;;;4920669;29;20039;-89
2023/10/20 09:04:31;;;;;;;28.77;12.80;;;24.30;99.90;;;;;;4920487;29;20448;-88
2023/10/20 09:06:59;;;;;;;29.60;13.35;;;24.30;99.90;;;;;;4920443;29;20066;-89
2023/10/20 09:09:25;;;;;;;29.67;12.80;;;24.30;99.90;;;;;;4920569;29;20043;-89
2023/10/20 09:11:53;;;;;;;32.72;13.50;;;24.50;99.90;;;;;;4920479;29;20042;-89
2023/10/20 09:14:20;;;;;;;25.10;14.00;;;24.60;99.90;;;;;;4920370;29;20115;-90
2023/10/20 09:16:47;;;;;;;39.50;13.98;;;24.70;99.90;;;;;;4920534;29;20039;-90
2023/10/20 09:19:14;;;;;;;24.63;14.20;;;24.70;99.90;;;;;;4920509;29;20031;-90
2023/10/20 09:21:46;;;;;;;39.63;14.77;;;24.90;99.90;;;;;;4920144;29;20035;-89
2023/10/20 09:24:15;;;;;;;41.50;16.25;;;24.90;99.90;;;;;;4920558;29;20078;-90
2023/10/20 09:26:43;;;;;;;35.72;14.20;;;24.90;99.90;;;;;;4920259;29;20028;-88
2023/10/20 09:29:10;;;;;;;37.60;14.45;;;24.80;99.90;;;;;;4920604;29;20060;-88
2023/10/20 09:31:37;;;;;;;30.95;14.77;;;24.80;99.90;;;;;;4935412;29;20063;-88
2023/10/20 09:34:04;;;;;;;34.38;15.23;;;25.00;99.90;;;;;;4938939;29;20039;-90
2023/10/20 09:36:35;;;;;;;29.67;15.73;;;25.20;99.90;;;;;;4939059;29;20042;-88
2023/10/20 09:39:05;;;;;;;34.85;16.70;;;25.20;99.90;;;;;;4939200;29;20034;-89
2023/10/20 09:41:33;;;;;;;30.80;16.00;;;25.40;99.90;;;;;;4938904;29;20042;-89
2023/10/20 09:44:07;;;;;;;32.47;15.70;;;25.60;99.90;;;;;;4939206;29;20098;-89
2023/10/20 09:47:07;;;;;;;31.10;15.43;;;25.40;99.90;;;;;;4939024;29;20193;-89
2023/10/20 09:49:35;;;;;;;31.52;15.10;;;25.10;99.90;;;;;;4939120;29;20384;-89
2023/10/20 09:52:01;;;;;;;39.25;13.85;;;25.00;99.90;;;;;;4938926;29;20082;-89
2023/10/20 09:54:30;;;;;;;33.72;14.18;;;24.90;99.90;;;;;;4939084;29;20027;-90
2023/10/20 09:56:57;;;;;;;37.85;15.45;;;25.00;99.90;;;;;;4938923;29;20042;-90
2023/10/20 09:59:27;;;;;;;46.35;15.88;;;25.00;99.90;;;;;;4928224;29;20036;-90
2023/10/20 10:02:01;;;;;;;26.58;14.65;;;25.10;99.90;;;;;;4919961;29;20087;-90
2023/10/20 10:04:37;;;;;;;35.83;16.10;;;25.20;99.90;;;;;;4920154;29;20056;-89
2023/10/20 10:07:04;;;;;;;39.35;15.57;;;25.00;99.90;;;;;;4932756;29;20043;-90
2023/10/20 10:09:38;;;;;;;32.88;14.40;;;25.00;99.90;;;;;;4939375;29;20028;-90
2023/10/20 10:12:11;;;;;;;30.55;16.00;;;25.10;99.90;;;;;;4939862;29;20027;-91
2023/10/20 10:14:37;;;;;;;30.35;15.73;;;25.20;99.90;;;;;;4943101;29;20035;-90
2023/10/20 10:17:09;;;;;;;26.55;15.40;;;25.30;99.90;;;;;;4942268;29;20039;-90
2023/10/20 10:19:52;;;;;;;34.65;15.90;;;25.30;99.90;;;;;;4942472;29;20031;-89
2023/10/20 10:22:31;;;;;;;31.05;15.32;;;25.40;99.90;;;;;;4942477;29;20035;-89
2023/10/20 10:25:00;;;;;;;31.65;15.00;;;25.20;99.90;;;;;;4942119;29;20063;-89
2023/10/20 10:27:28;;;;;;;28.70;14.75;;;25.30;99.90;;;;;;4942189;29;20503;-88
2023/10/20 10:30:05;;;;;;;31.85;15.80;;;25.20;99.90;;;;;;4942021;29;20085;-89
2023/10/20 10:32:33;;;;;;;32.25;14.70;;;25.00;99.90;;;;;;4942892;29;20122;-89
2023/10/20 10:35:01;;;;;;;37.97;15.75;;;25.00;99.90;;;;;;4942278;29;20079;-89
2023/10/20 10:37:34;;;;;;;36.80;14.10;;;25.20;99.90;;;;;;4942284;29;20091;-91
2023/10/20 10:40:13;;;;;;;29.25;15.50;;;25.10;99.90;;;;;;4942393;29;20042;-90
2023/10/20 10:42:42;;;;;;;37.30;14.68;;;24.90;99.90;;;;;;4941855;29;20043;-90
2023/10/20 10:45:34;;;;;;;32.05;14.65;;;24.80;99.90;;;;;;4941887;29;20024;-91
2023/10/20 10:48:07;;;;;;;36.83;13.90;;;24.80;99.90;;;;;;4942211;29;20382;-89
2023/10/20 10:50:37;;;;;;;35.85;14.38;;;24.90;99.90;;;;;;4942200;29;20033;-89
2023/10/20 10:53:05;;;;;;;35.05;15.40;;;25.10;99.90;;;;;;4942136;29;20046;-90
2023/10/20 10:55:35;;;;;;;36.17;13.95;;;25.20;99.90;;;;;;4941964;29;20020;-90
2023/10/20 10:58:05;;;;;;;35.10;14.35;;;24.80;99.90;;;;;;4942261;29;20031;-89
2023/10/20 11:00:31;;;;;;;30.88;13.85;;;24.90;99.90;;;;;;4941482;29;20023;-90
2023/10/20 11:03:00;;;;;;;31.00;13.82;;;24.90;99.90;;;;;;4941644;29;20054;-89
2023/10/20 11:05:27;;;;;;;33.45;14.10;;;24.90;99.90;;;;;;4941607;29;20066;-90
2023/10/20 11:07:59;;;;;;;44.88;14.05;;;24.80;99.90;;;;;;4941958;29;20563;-89
2023/10/20 11:10:29;;;;;;;40.50;15.05;;;25.10;99.90;;;;;;4941645;29;20042;-90
2023/10/20 11:12:59;;;;;;;28.45;13.35;;;25.10;99.90;;;;;;4942960;29;20102;-87
2023/10/20 11:15:29;;;;;;;38.17;14.52;;;24.80;99.90;;;;;;4941395;29;20106;-90
2023/10/20 11:17:59;;;;;;;37.17;13.93;;;24.80;99.90;;;;;;4941427;29;20035;-90
2023/10/20 11:20:33;;;;;;;36.05;13.77;;;24.80;99.90;;;;;;4941270;29;20032;-89
2023/10/20 11:23:00;;;;;;;34.88;14.13;;;25.00;99.90;;;;;;4937977;29;20119;-89
2023/10/20 11:25:27;;;;;;;30.60;13.25;;;24.90;99.90;;;;;;4954211;29;20098;-88
2023/10/20 11:27:57;;;;;;;38.58;13.43;;;24.80;99.90;;;;;;4938297;29;20061;-90
2023/10/20 11:30:28;;;;;;;36.92;13.30;;;24.60;99.90;;;;;;4938055;29;20062;-88
2023/10/20 11:32:55;;;;;;;28.55;12.40;;;24.50;99.90;;;;;;4938377;29;20032;-90
2023/10/20 11:35:26;;;;;;;38.50;13.57;;;24.50;99.90;;;;;;4954170;29;20106;-88
2023/10/20 11:37:54;;;;;;;32.30;12.98;;;24.60;99.90;;;;;;4938196;29;20129;-89
2023/10/20 11:40:22;;;;;;;32.97;13.77;;;24.70;99.90;;;;;;4953356;29;20031;-86
2023/10/20 11:42:48;;;;;;;37.17;13.98;;;24.80;99.90;;;;;;4937247;29;20032;-85
2023/10/20 11:45:16;;;;;;;31.95;13.50;;;24.80;99.90;;;;;;4921834;29;20437;-87
2023/10/20 11:47:42;;;;;;;31.35;13.35;;;24.70;99.90;;;;;;4921953;29;20032;-88
2023/10/20 11:50:18;;;;;;;32.65;13.70;;;24.90;99.90;;;;;;4922044;29;20024;-90
2023/10/20 11:52:45;;;;;;;29.63;14.07;;;25.20;99.90;;;;;;4923367;29;20035;-88
2023/10/20 11:55:12;;;;;;;36.85;14.43;;;25.20;99.90;;;;;;4937275;29;20024;-88
2023/10/20 11:57:39;;;;;;;38.17;14.60;;;25.40;99.90;;;;;;4937438;29;20504;-88
2023/10/20 12:00:08;;;;;;;33.47;14.80;;;25.50;99.90;;;;;;4942791;29;20393;-89
2023/10/20 12:02:41;;;;;;;38.63;15.30;;;25.50;99.90;;;;;;4922470;29;20027;-91
2023/10/20 12:05:09;;;;;;;35.92;14.93;;;25.60;99.90;;;;;;4921859;29;20043;-89
2023/10/20 12:07:36;;;;;;;32.67;15.27;;;25.30;99.90;;;;;;4921408;29;20062;-89
2023/10/20 12:10:06;;;;;;;36.58;14.35;;;25.30;99.90;;;;;;4921726;29;20031;-89
2023/10/20 12:12:34;;;;;;;35.00;14.82;;;25.30;99.90;;;;;;4924365;29;20034;-91
2023/10/20 12:15:00;;;;;;;43.05;16.00;;;25.30;99.90;;;;;;4940402;29;20029;-90
2023/10/20 12:17:27;;;;;;;28.55;13.68;;;25.40;99.90;;;;;;4940803;29;20043;-89
2023/10/20 12:19:53;;;;;;;40.33;15.35;;;25.40;99.90;;;;;;4940680;29;20030;-91
2023/10/20 12:22:20;;;;;;;29.42;13.82;;;25.40;99.90;;;;;;4941573;29;20125;-92
2023/10/20 12:24:47;;;;;;;32.88;14.55;;;25.30;99.90;;;;;;4940646;29;20034;-92
2023/10/20 12:27:13;;;;;;;35.20;14.82;;;25.30;99.90;;;;;;4940728;29;20038;-90
2023/10/20 12:29:40;;;;;;;33.22;14.10;;;25.30;99.90;;;;;;4938500;29;20023;-91
2023/10/20 12:32:10;;;;;;;29.38;13.98;;;25.30;99.90;;;;;;4905637;29;20035;-90
2023/10/20 12:34:37;;;;;;;33.92;14.13;;;25.20;99.90;;;;;;4905094;29;20560;-90
2023/10/20 12:37:03;;;;;;;33.75;15.73;;;25.30;99.90;;;;;;4905368;29;20047;-91
2023/10/20 12:39:31;;;;;;;31.92;15.43;;;25.30;99.90;;;;;;4905461;29;20031;-93
2023/10/20 12:42:07;;;;;;;36.67;15.57;;;25.10;99.90;;;;;;4906059;29;20114;-87
2023/10/20 12:44:34;;;;;;;33.40;15.65;;;25.10;99.90;;;;;;4906030;29;20492;-90
2023/10/20 12:47:00;;;;;;;28.33;13.90;;;24.90;99.90;;;;;;4905258;29;20028;-87
2023/10/20 12:49:26;;;;;;;36.65;14.30;;;24.90;99.90;;;;;;4905351;29;20027;-87
2023/10/20 12:51:53;;;;;;;35.53;14.88;;;24.70;99.90;;;;;;4905237;29;20389;-86
2023/10/20 12:54:19;;;;;;;24.60;14.02;;;24.80;99.90;;;;;;4905288;29;20031;-88
2023/10/20 12:56:46;;;;;;;35.72;14.15;;;24.90;99.90;;;;;;4905209;29;20035;-87
2023/10/20 12:59:13;;;;;;;37.83;15.18;;;25.00;99.90;;;;;;4904743;29;20028;-89
2023/10/20 13:01:39;;;;;;;30.35;14.00;;;24.90;99.90;;;;;;4905012;29;20028;-88
2023/10/20 13:04:07;;;;;;;26.13;13.60;;;25.00;99.90;;;;;;4904945;29;20055;-89
2023/10/20 13:06:46;;;;;;;35.10;13.93;;;25.10;99.90;;;;;;4905947;29;20027;-90
2023/10/20 13:09:25;;;;;;;28.38;13.15;;;25.00;99.90;;;;;;4905068;29;20032;-86
2023/10/20 13:12:02;;;;;;;42.70;14.90;;;24.90;99.90;;;;;;4895635;29;20039;-90
2023/10/20 13:14:36;;;;;;;33.70;13.40;;;24.90;99.90;;;;;;4908438;29;20028;-90